Share

Sapporo, Japón

New Chitose (RJCC) Alt 98 ft | 42.77 °N, 141.69 °E | Change Station

Current weather conditions updated 11 minutes ago

Partly Cloudy
Parcialmente nublado
48 ° F
Sensación térmica 48 ° F
N
25
Viento Variable Viento desde NNO
Amanecer 4:48 AM
Atardecer 6:20 PM
Luna Gibosa menguante

Hoy se prevé una temperatura muy similar a la de ayer.

Presión 29.98 pul
Visibilidad 6.2 Millas
Nubes Baja 3500 ft
Punto de rocío 25 ° F
Humedad 40%
Precipitaciones 0.00 pul
Espesor de la nieve No disponible.
UV 7 de una escala de 16
Polen No disponible.
Calidad del aire No disponible.
Flu Activity No disponible.
METAR RJCC 180300Z 33022KT 9999 FEW035 09/M04 Q1015 RMK 1CU035 A2998

More Conditions Fewer Conditions

Presión 29.98 pul
Visibilidad 6.2 Millas
Nubes Baja 3500 ft
Punto de rocío 25 ° F
Humedad 40%
Precipitaciones 0.00 pul
Espesor de la nieve No disponible.
UV 7 de una escala de 16
Polen No disponible.
Calidad del aire No disponible.
Flu Activity No disponible.
METAR RJCC 180300Z 33022KT 9999 FEW035 09/M04 Q1015 RMK 1CU035 A2998

More Conditions Fewer Conditions

10-Day Forecast

Almanac

Astronomía

Apr. 18, 2014 Salida Puesta
Hora real 4:48 AM JST 6:20 PM JST
Crepúsculo civil 4:19 AM JST 6:49 PM JST
Crepúsculo náutico 3:43 AM JST 7:25 PM JST
Crepúsculo astronómico 3:05 AM JST 8:04 PM JST
Luna 9:30 PM JST 6:35 AM JST
Horas de luz 14h 30m
Horas de luz
13h 31m
Tomorrow will be 2m 46s longer.
Gibosa menguante, 91% of the Moon is Illuminated
Abr 17
Gibosa menguante
Abr 22
Cuarto menguante
Abr 29
Nueva
May 6
Cuarto creciente
May 14
Luna llena

Extremos de ayer

Máximos del país Bajas del país

Community

  • SUNRISE THROUGH THE TREES.
    SUNRISE THROUGH THE TREES.
  • Dog Wood Blossoms
    Dog Wood Blossoms
  • Morning Light
    Morning Light
  • New Day
    New Day
  • Lake Michigan Sunrise
    Lake Michigan Sunrise

WunderPhotos

Upload Photos

1,702,236 ¡fotos cargadas!

WunderBlogs® & News

Nearby

Calidad del aire

Not available.

Grosos de nieve

Not available.

Temperaturas de aguas costeras

Lugar Temperatura
Sin partes meteorológicos de las estaciones

Actividad de terremotos

Ciudad Distance Mag. Tiempo y dato
No hay informes recientes de la actividad sísmica.
Magnitud mínima muestra es 2,5.

Estaciones meteorológicas cercanas

No hay estaciones meteorológicas personales en esta zona.

What do you think?

We're not finished. Please let us know what you like, what you don't like, and what you are still missing.